Time;durP1;ratioP1;P1;durP2;ratioP2;P2;SDS_P1;SDS_P2;PMS_P1;PMS_P2;Temp;Humidity;BMP_temperature;BMP_pressure;BME280_temperature;BME280_humidity;BME280_pressure;Samples;Min_cycle;Max_cycle;Signal;HPM_P1;HPM_P2
2023/05/12 00:02:04;;;;;;;7.95;3.83;;;;;;;9.67;94.12;100571.91;5006664;28;20025;-19
2023/05/12 00:04:30;;;;;;;5.85;3.75;;;;;;;9.51;95.90;100571.22;5006743;28;20026;-18
2023/05/12 00:06:55;;;;;;;8.40;3.90;;;;;;;9.56;95.39;100571.47;5006401;28;20113;-18
2023/05/12 00:09:21;;;;;;;6.35;3.88;;;;;;;9.42;96.18;100575.09;5006656;28;20201;-19
2023/05/12 00:11:47;;;;;;;9.20;5.38;;;;;;;9.81;93.87;100573.56;5006292;28;20410;-19
2023/05/12 00:14:12;;;;;;;5.75;4.13;;;;;;;9.80;93.23;100580.72;5006418;28;20030;-18
2023/05/12 00:16:38;;;;;;;6.97;4.20;;;;;;;9.76;93.26;100571.50;5006623;28;20030;-18
2023/05/12 00:19:03;;;;;;;7.45;4.13;;;;;;;9.84;92.95;100560.66;5006243;28;20036;-18
2023/05/12 00:21:28;;;;;;;8.25;4.75;;;;;;;9.71;94.18;100570.47;5006638;28;20025;-19
2023/05/12 00:23:54;;;;;;;7.07;4.28;;;;;;;9.83;92.86;100571.53;5006237;28;20109;-22
2023/05/12 00:26:19;;;;;;;8.20;4.07;;;;;;;9.77;93.12;100549.19;5006550;28;20479;-18
2023/05/12 00:28:46;;;;;;;7.82;3.83;;;;;;;9.86;92.69;100565.78;5006092;28;20042;-18
2023/05/12 00:31:11;;;;;;;7.45;3.95;;;;;;;9.71;92.50;100557.97;5006288;28;20030;-18
2023/05/12 00:33:37;;;;;;;9.07;4.25;;;;;;;9.92;92.49;100569.50;5006121;28;20029;-19
2023/05/12 00:36:03;;;;;;;9.77;4.32;;;;;;;9.68;93.69;100562.88;5006023;28;20030;-19
2023/05/12 00:38:28;;;;;;;7.38;4.10;;;;;;;9.67;93.84;100572.72;5006196;28;20030;-21
2023/05/12 00:40:53;;;;;;;8.85;4.35;;;;;;;9.73;94.92;100574.56;5005838;28;20030;-18
2023/05/12 00:43:19;;;;;;;5.95;3.95;;;;;;;9.72;93.81;100564.13;5006158;28;20030;-18
2023/05/12 00:45:44;;;;;;;7.25;4.05;;;;;;;9.70;93.94;100560.84;5005871;28;20030;-18
2023/05/12 00:48:10;;;;;;;7.50;4.32;;;;;;;9.61;94.68;100578.84;5005972;28;20421;-18
2023/05/12 00:50:36;;;;;;;7.72;4.35;;;;;;;9.60;94.31;100567.38;5005085;28;20022;-19
2023/05/12 00:53:02;;;;;;;7.80;4.07;;;;;;;9.59;94.74;100576.38;5005696;28;20034;-18
2023/05/12 00:55:28;;;;;;;7.40;4.45;;;;;;;9.28;95.35;100574.22;5005741;28;20022;-19
2023/05/12 00:57:54;;;;;;;8.07;5.03;;;;;;;9.15;97.01;100564.28;5005868;28;20040;-19
2023/05/12 01:00:21;;;;;;;11.00;5.10;;;;;;;9.38;94.37;100560.53;5005789;28;20536;-19
2023/05/12 01:02:46;;;;;;;9.43;5.57;;;;;;;9.38;95.24;100573.84;5005576;28;20072;-17
2023/05/12 01:05:13;;;;;;;9.85;5.20;;;;;;;9.23;96.21;100566.81;5005724;28;20030;-18
2023/05/12 01:07:39;;;;;;;9.30;5.38;;;;;;;9.28;96.11;100574.22;5005364;28;20034;-18
2023/05/12 01:10:16;;;;;;;10.18;5.78;;;;;;;9.39;94.84;100570.16;5005313;28;20028;-18
2023/05/12 01:12:41;;;;;;;7.70;5.00;;;;;;;9.38;95.10;100579.16;5005368;28;20433;-20
2023/05/12 01:15:08;;;;;;;7.82;4.85;;;;;;;9.14;97.39;100585.81;5005285;28;20026;-18
2023/05/12 01:17:35;;;;;;;9.30;4.93;;;;;;;9.09;98.59;100575.72;5005398;28;20022;-18
2023/05/12 01:20:03;;;;;;;9.75;5.22;;;;;;;9.22;97.62;100581.13;5005284;28;20550;-18
2023/05/12 01:22:30;;;;;;;7.47;4.80;;;;;;;9.35;96.56;100585.69;5005461;28;20045;-19
2023/05/12 01:25:02;;;;;;;8.48;5.47;;;;;;;9.27;96.49;100577.06;5005334;28;20092;-18
2023/05/12 01:27:28;;;;;;;11.85;5.35;;;;;;;9.33;96.79;100586.91;5005147;28;20026;-18
2023/05/12 01:29:57;;;;;;;9.15;5.35;;;;;;;9.03;98.25;100589.81;5005184;28;20161;-19
2023/05/12 01:32:23;;;;;;;9.27;4.95;;;;;;;9.11;98.17;100579.00;5005428;28;20034;-18
2023/05/12 01:34:49;;;;;;;8.55;5.40;;;;;;;9.16;98.21;100583.75;5005228;28;20113;-19
2023/05/12 01:37:15;;;;;;;9.25;5.28;;;;;;;9.24;97.45;100597.72;5005035;28;20041;-18
2023/05/12 01:39:40;;;;;;;9.77;5.28;;;;;;;9.14;98.01;100591.94;5004951;28;20034;-18
2023/05/12 01:42:06;;;;;;;10.00;5.40;;;;;;;9.15;98.29;100588.25;5005212;28;20471;-19
2023/05/12 01:44:32;;;;;;;9.15;4.88;;;;;;;8.94;99.13;100593.66;5004726;28;20034;-18
2023/05/12 01:46:58;;;;;;;8.02;4.63;;;;;;;8.91;100.00;100594.03;5004949;28;20121;-17
2023/05/12 01:49:24;;;;;;;8.10;4.88;;;;;;;9.00;99.42;100582.25;5005204;28;20022;-18
2023/05/12 01:51:49;;;;;;;6.85;4.40;;;;;;;9.04;98.66;100583.50;5004927;28;20065;-19
2023/05/12 01:54:15;;;;;;;8.02;4.80;;;;;;;9.05;98.78;100579.81;5004973;28;20387;-19
2023/05/12 01:56:40;;;;;;;10.88;5.10;;;;;;;9.18;99.22;100587.88;5005182;28;20033;-18
2023/05/12 01:59:06;;;;;;;9.45;4.82;;;;;;;9.24;98.65;100595.06;5004902;28;20028;-19
2023/05/12 02:01:32;;;;;;;7.63;4.93;;;;;;;9.20;99.40;100599.13;5005563;28;20080;-18
2023/05/12 02:03:58;;;;;;;8.00;4.38;;;;;;;9.39;97.04;100596.78;5009140;28;20021;-24
2023/05/12 02:06:24;;;;;;;8.13;5.53;;;;;;;9.24;98.56;100595.06;5008831;28;20060;-19
2023/05/12 02:08:50;;;;;;;7.68;4.80;;;;;;;9.07;99.12;100588.41;5008592;28;20503;-18
2023/05/12 02:11:15;;;;;;;8.70;4.97;;;;;;;9.01;100.00;100587.38;5008331;28;20050;-18
2023/05/12 02:13:44;;;;;;;8.32;5.05;;;;;;;9.06;100.00;100586.78;5008759;28;20038;-18
2023/05/12 02:16:10;;;;;;;9.80;5.38;;;;;;;9.03;100.00;100587.16;5008749;28;20037;-18
2023/05/12 02:18:36;;;;;;;8.18;4.85;;;;;;;9.14;99.99;100572.50;5008384;28;20037;-18
2023/05/12 02:21:01;;;;;;;8.30;5.07;;;;;;;9.21;100.00;100579.50;5008553;28;20022;-17
2023/05/12 02:23:26;;;;;;;8.07;5.00;;;;;;;9.43;98.79;100576.72;5008603;28;20030;-19
2023/05/12 02:25:52;;;;;;;7.50;4.90;;;;;;;9.45;98.49;100574.69;5008562;28;20481;-19
2023/05/12 02:28:17;;;;;;;7.03;4.65;;;;;;;9.35;99.70;100579.56;5008265;28;20037;-23
2023/05/12 02:30:47;;;;;;;8.98;5.28;;;;;;;9.41;98.75;100578.75;5008201;28;20021;-17
2023/05/12 02:33:14;;;;;;;10.85;5.63;;;;;;;9.59;97.57;100587.03;5008576;28;20029;-19
2023/05/12 02:35:39;;;;;;;8.00;4.40;;;;;;;9.39;99.33;100586.13;5008197;28;20080;-18
2023/05/12 02:38:05;;;;;;;8.63;4.82;;;;;;;9.37;98.89;100574.84;5008370;28;20067;-18
2023/05/12 02:40:30;;;;;;;10.48;4.85;;;;;;;9.53;98.65;100585.16;5008235;28;20068;-18
2023/05/12 02:42:55;;;;;;;11.25;5.50;;;;;;;9.61;97.90;100581.50;5008286;28;20616;-18
2023/05/12 02:45:21;;;;;;;10.65;5.05;;;;;;;9.34;98.65;100577.94;5007832;28;20030;-18
2023/05/12 02:47:47;;;;;;;8.25;5.15;;;;;;;9.39;99.50;100575.47;5008190;28;20056;-18
2023/05/12 02:50:13;;;;;;;7.82;5.05;;;;;;;9.52;99.92;100588.84;5007904;28;20022;-18
2023/05/12 02:52:38;;;;;;;8.65;5.20;;;;;;;9.46;100.00;100581.66;5007986;28;20034;-18
2023/05/12 02:55:04;;;;;;;8.55;5.20;;;;;;;9.41;100.00;100574.25;5008133;28;20033;-18
2023/05/12 02:57:32;;;;;;;9.38;5.18;;;;;;;9.46;100.00;100581.66;5007892;28;20022;-17
2023/05/12 02:59:58;;;;;;;8.88;5.00;;;;;;;9.36;100.00;100583.88;5008078;28;20079;-23
2023/05/12 03:02:24;;;;;;;8.48;5.20;;;;;;;9.39;100.00;100586.13;5007999;28;20091;-18
2023/05/12 03:04:49;;;;;;;9.70;5.45;;;;;;;9.38;99.78;100579.97;5008159;28;20543;-19
2023/05/12 03:07:15;;;;;;;10.15;6.07;;;;;;;9.36;100.00;100591.84;5007651;28;20044;-18
2023/05/12 03:09:41;;;;;;;10.02;5.93;;;;;;;9.41;100.00;100594.72;5007558;28;20021;-18
2023/05/12 03:12:07;;;;;;;11.95;6.68;;;;;;;9.30;100.00;100592.66;5007383;28;20100;-18
2023/05/12 03:14:32;;;;;;;10.90;6.10;;;;;;;9.20;100.00;100588.50;5007650;28;20544;-18
2023/05/12 03:16:58;;;;;;;9.15;6.05;;;;;;;9.24;100.00;100588.94;5007894;28;20033;-18
2023/05/12 03:19:23;;;;;;;10.80;6.15;;;;;;;9.00;100.00;100580.41;5007015;28;20461;-18
2023/05/12 03:21:49;;;;;;;12.35;6.25;;;;;;;8.97;100.00;100590.59;5007601;28;20059;-19
2023/05/12 03:24:14;;;;;;;9.35;6.25;;;;;;;8.96;100.00;100591.63;5007391;28;20101;-18
2023/05/12 03:26:40;;;;;;;9.65;6.00;;;;;;;9.01;100.00;100594.50;5007404;28;20081;-17
2023/05/12 03:29:05;;;;;;;9.18;5.93;;;;;;;8.92;100.00;100601.81;5007095;28;20026;-18
2023/05/12 03:31:31;;;;;;;7.68;5.38;;;;;;;9.09;100.00;100606.84;5007150;28;20425;-18
2023/05/12 03:33:56;;;;;;;8.10;5.70;;;;;;;9.30;100.00;100608.63;5007262;28;20469;-17
2023/05/12 03:36:22;;;;;;;9.70;6.43;;;;;;;9.61;100.00;100605.47;5007098;28;20168;-19
2023/05/12 03:38:48;;;;;;;10.38;6.50;;;;;;;9.50;100.00;100604.22;5007295;28;20081;-18
2023/05/12 03:41:13;;;;;;;8.60;5.50;;;;;;;9.31;100.00;100594.28;5006880;28;20064;-18
2023/05/12 03:43:39;;;;;;;9.77;5.85;;;;;;;9.49;100.00;100618.53;5007132;28;20061;-18
2023/05/12 03:46:04;;;;;;;10.45;6.47;;;;;;;9.44;100.00;100628.97;5007143;28;20026;-18
2023/05/12 03:48:30;;;;;;;9.60;5.45;;;;;;;9.42;100.00;100633.66;5007137;28;20053;-23
2023/05/12 03:50:55;;;;;;;9.50;5.63;;;;;;;9.61;100.00;100627.59;5006731;28;20054;-19
2023/05/12 03:53:21;;;;;;;8.15;5.45;;;;;;;9.85;100.00;100639.56;5007086;28;20161;-18
2023/05/12 03:55:46;;;;;;;6.80;4.82;;;;;;;9.64;100.00;100637.84;5007083;28;20482;-18
2023/05/12 03:58:12;;;;;;;8.82;5.13;;;;;;;9.81;100.00;100642.84;5006843;28;20060;-21
2023/05/12 04:00:37;;;;;;;7.88;5.00;;;;;;;9.65;100.00;100634.16;5006546;28;20022;-19
2023/05/12 04:03:03;;;;;;;8.95;5.03;;;;;;;9.76;100.00;100637.28;5006782;28;20041;-18
2023/05/12 04:05:28;;;;;;;10.02;5.53;;;;;;;9.77;100.00;100638.94;5006817;28;20053;-19
2023/05/12 04:07:54;;;;;;;9.80;6.13;;;;;;;9.87;100.00;100642.03;5006658;28;20034;-19
2023/05/12 04:10:19;;;;;;;11.18;6.63;;;;;;;9.92;100.00;100644.09;5006325;28;20030;-18
2023/05/12 04:12:45;;;;;;;11.27;7.35;;;;;;;9.99;100.00;100626.25;5006389;28;20076;-18
2023/05/12 04:15:10;;;;;;;9.43;6.90;;;;;;;10.11;100.00;100642.50;5006547;28;20087;-18
2023/05/12 04:17:35;;;;;;;12.40;7.35;;;;;;;10.09;100.00;100648.03;5006491;28;20060;-21
2023/05/12 04:20:01;;;;;;;20.02;7.20;;;;;;;10.02;100.00;100645.34;5006446;28;20467;-26
2023/05/12 04:22:27;;;;;;;11.00;6.60;;;;;;;10.17;100.00;100647.03;5006538;28;20028;-17
2023/05/12 04:24:52;;;;;;;13.75;7.25;;;;;;;10.16;100.00;100634.72;5005526;28;20441;-18
2023/05/12 04:27:18;;;;;;;9.35;5.90;;;;;;;10.19;100.00;100650.31;5006232;28;20084;-22
2023/05/12 04:29:43;;;;;;;9.10;6.05;;;;;;;10.30;100.00;100635.59;5005621;28;20026;-18
2023/05/12 04:32:08;;;;;;;8.32;5.88;;;;;;;10.29;100.00;100634.75;5006247;28;20033;-18
2023/05/12 04:34:34;;;;;;;10.18;6.30;;;;;;;10.35;100.00;100644.63;5005435;28;20030;-18
2023/05/12 04:37:00;;;;;;;9.73;6.10;;;;;;;10.39;100.00;100645.84;5006106;28;20036;-19
2023/05/12 04:39:27;;;;;;;10.48;6.55;;;;;;;10.20;100.00;100636.78;5005561;28;20394;-18
2023/05/12 04:41:52;;;;;;;16.95;7.00;;;;;;;10.27;100.00;100648.25;5005875;28;20036;-19
2023/05/12 04:44:17;;;;;;;13.43;7.28;;;;;;;10.37;100.00;100657.75;5005669;28;20022;-20
2023/05/12 04:46:43;;;;;;;11.15;7.10;;;;;;;10.30;100.00;100652.44;5005684;28;20409;-17
2023/05/12 04:49:08;;;;;;;11.43;7.35;;;;;;;10.47;100.00;100657.38;5005466;28;20424;-18
2023/05/12 04:51:40;;;;;;;13.65;7.10;;;;;;;10.41;100.00;100643.81;5005206;28;20425;-18
2023/05/12 04:54:08;;;;;;;12.23;7.00;;;;;;;10.40;100.00;100642.19;5000300;28;20022;-19
2023/05/12 04:56:33;;;;;;;9.75;6.65;;;;;;;10.50;100.00;100652.47;5005181;28;20153;-18
2023/05/12 04:58:59;;;;;;;8.80;6.63;;;;;;;10.68;100.00;100648.34;5005714;28;20049;-18
2023/05/12 05:01:25;;;;;;;10.38;6.60;;;;;;;10.78;100.00;100638.91;5005252;28;20121;-18
2023/05/12 05:03:51;;;;;;;11.38;6.20;;;;;;;10.86;100.00;100651.22;4995761;28;20084;-18
2023/05/12 05:06:16;;;;;;;10.88;6.65;;;;;;;11.08;100.00;100640.31;5005334;28;20581;-18
2023/05/12 05:08:42;;;;;;;8.55;5.70;;;;;;;11.31;98.92;100637.19;5005282;28;20014;-18
2023/05/12 05:11:07;;;;;;;9.50;6.05;;;;;;;11.36;99.00;100634.69;5004879;28;20449;-19
2023/05/12 05:13:33;;;;;;;11.90;6.55;;;;;;;11.52;97.13;100634.22;5005204;28;20026;-19
2023/05/12 05:15:58;;;;;;;8.90;5.60;;;;;;;11.68;95.83;100632.13;5005351;28;20029;-18
2023/05/12 05:18:24;;;;;;;9.68;6.22;;;;;;;11.66;94.99;100651.84;5004860;28;20029;-19
2023/05/12 05:20:49;;;;;;;8.88;6.57;;;;;;;11.76;96.43;100640.72;5005116;28;20022;-18
2023/05/12 05:23:14;;;;;;;9.80;6.10;;;;;;;11.89;96.98;100644.38;5005031;28;20029;-18
2023/05/12 05:25:40;;;;;;;8.00;5.72;;;;;;;12.02;93.14;100642.47;5005144;28;20030;-18
2023/05/12 05:28:06;;;;;;;7.68;5.78;;;;;;;12.06;91.83;100651.69;5005019;28;20026;-19
2023/05/12 05:30:31;;;;;;;7.97;5.43;;;;;;;12.17;89.47;100650.19;5004730;28;20029;-21
2023/05/12 05:32:57;;;;;;;9.30;5.47;;;;;;;12.29;90.34;100662.88;5005064;28;20068;-18
2023/05/12 05:35:22;;;;;;;8.05;4.90;;;;;;;12.32;87.76;100643.72;5005085;28;20029;-19
2023/05/12 05:37:49;;;;;;;6.90;4.82;;;;;;;12.62;89.09;100654.63;5005102;28;21072;-18
2023/05/12 05:40:15;;;;;;;12.32;5.05;;;;;;;12.65;83.78;100649.66;5004601;28;20440;-18
2023/05/12 05:42:40;;;;;;;9.02;4.95;;;;;;;12.74;86.41;100663.59;5005015;28;20497;-18
2023/05/12 05:45:06;;;;;;;9.32;5.03;;;;;;;12.94;84.13;100662.59;5005158;28;20068;-18
2023/05/12 05:47:33;;;;;;;8.52;4.65;;;;;;;12.77;84.51;100667.66;5004937;28;20764;-18
2023/05/12 05:49:58;;;;;;;10.13;5.07;;;;;;;12.52;85.15;100654.28;5005439;28;20041;-18
2023/05/12 05:52:24;;;;;;;8.00;4.50;;;;;;;12.86;85.02;100661.84;5004918;28;20034;-18
2023/05/12 05:54:49;;;;;;;9.15;4.80;;;;;;;12.93;82.45;100663.63;5004957;28;20022;-18
2023/05/12 05:57:14;;;;;;;9.35;4.60;;;;;;;12.68;83.74;100648.41;5004598;28;20269;-20
2023/05/12 05:59:40;;;;;;;6.93;4.57;;;;;;;12.91;83.98;100658.50;5005005;28;20030;-18
2023/05/12 06:02:06;;;;;;;10.70;5.20;;;;;;;13.14;83.42;100657.06;5004776;28;20030;-18
2023/05/12 06:04:31;;;;;;;9.90;5.25;;;;;;;13.21;81.29;100653.25;5005063;28;20033;-21
2023/05/12 06:06:57;;;;;;;6.50;4.50;;;;;;;13.36;79.44;100665.50;5005154;28;20512;-18
2023/05/12 06:09:22;;;;;;;8.35;4.45;;;;;;;13.21;79.90;100658.63;5004887;28;20456;-18
2023/05/12 06:11:48;;;;;;;7.13;4.18;;;;;;;13.36;78.40;100660.16;5004429;28;20068;-18
2023/05/12 06:14:13;;;;;;;7.35;4.38;;;;;;;13.35;79.01;100655.84;5004827;28;20026;-18
2023/05/12 06:16:39;;;;;;;7.22;4.70;;;;;;;13.05;80.05;100659.19;5004461;28;20033;-19
2023/05/12 06:19:04;;;;;;;9.40;4.30;;;;;;;12.93;81.08;100650.25;5004450;28;20026;-18
2023/05/12 06:21:31;;;;;;;7.57;4.47;;;;;;;13.42;81.06;100662.78;5004973;28;20026;-18
2023/05/12 06:23:56;;;;;;;7.80;3.88;;;;;;;13.52;78.97;100658.75;5004228;28;20045;-19
2023/05/12 06:26:22;;;;;;;7.57;3.78;;;;;;;13.41;77.33;100668.34;5004484;28;20026;-18
2023/05/12 06:28:47;;;;;;;7.07;3.95;;;;;;;13.55;77.25;100661.81;5004351;28;20029;-18
2023/05/12 06:31:12;;;;;;;8.57;4.22;;;;;;;13.76;75.09;100648.97;5004110;28;20033;-19
2023/05/12 06:33:38;;;;;;;7.05;4.40;;;;;;;13.66;74.33;100661.03;5004208;28;20030;-18
2023/05/12 06:36:04;;;;;;;7.90;4.55;;;;;;;13.82;73.86;100669.53;5004387;28;20139;-18
2023/05/12 06:38:30;;;;;;;6.55;3.95;;;;;;;13.90;72.48;100674.59;5004492;28;20026;-18
2023/05/12 06:40:55;;;;;;;6.03;3.50;;;;;;;14.03;71.46;100677.06;5004387;28;20033;-19
2023/05/12 06:43:22;;;;;;;7.00;4.25;;;;;;;14.19;70.59;100678.31;5004011;28;20028;-18
2023/05/12 06:45:47;;;;;;;7.68;3.95;;;;;;;14.06;70.20;100660.53;5004295;28;20018;-18
2023/05/12 06:48:13;;;;;;;8.13;4.20;;;;;;;14.03;73.19;100671.72;5005858;28;20033;-18
2023/05/12 06:50:38;;;;;;;7.05;3.90;;;;;;;13.78;73.84;100674.50;5007515;28;20048;-18
2023/05/12 06:53:05;;;;;;;10.15;4.40;;;;;;;13.85;75.98;100674.44;5007843;28;20021;-22
2023/05/12 06:55:30;;;;;;;8.80;4.40;;;;;;;13.68;75.20;100676.09;5007545;28;20033;-18
2023/05/12 06:57:56;;;;;;;7.10;3.83;;;;;;;14.06;71.08;100662.41;5007532;28;20479;-19
2023/05/12 07:00:25;;;;;;;7.80;3.97;;;;;;;14.18;70.30;100667.81;5007420;28;20083;-18
2023/05/12 07:02:51;;;;;;;8.82;4.10;;;;;;;14.24;69.73;100666.88;5007267;28;20038;-18
2023/05/12 07:05:17;;;;;;;6.10;3.78;;;;;;;13.95;70.32;100676.56;5005045;28;20034;-18
2023/05/12 07:07:43;;;;;;;8.25;3.67;;;;;;;13.79;72.15;100665.44;5007366;28;20022;-18
2023/05/12 07:10:09;;;;;;;6.43;3.78;;;;;;;13.89;71.66;100672.13;5005950;28;20030;-18
2023/05/12 07:12:36;;;;;;;9.38;4.00;;;;;;;13.94;71.93;100673.09;5006146;28;20437;-18
2023/05/12 07:15:01;;;;;;;6.72;3.50;;;;;;;14.14;69.10;100663.94;5007409;28;20042;-18
2023/05/12 07:17:27;;;;;;;9.10;4.38;;;;;;;14.42;67.95;100671.38;5007703;28;20029;-19
2023/05/12 07:19:53;;;;;;;8.75;4.10;;;;;;;14.70;64.79;100669.97;5007512;28;20030;-19
2023/05/12 07:22:19;;;;;;;9.07;4.40;;;;;;;14.72;65.54;100673.25;5007938;28;20033;-18
2023/05/12 07:24:44;;;;;;;7.10;3.50;;;;;;;14.57;63.03;100681.75;5007370;28;20026;-18
2023/05/12 07:27:10;;;;;;;8.82;4.53;;;;;;;14.40;66.07;100674.28;5007467;28;20022;-19
2023/05/12 07:29:35;;;;;;;7.88;3.72;;;;;;;14.35;63.99;100671.50;5007185;28;20026;-19
2023/05/12 07:32:01;;;;;;;6.30;3.72;;;;;;;14.16;66.17;100669.91;5007544;28;20121;-18
2023/05/12 07:34:26;;;;;;;9.32;4.20;;;;;;;14.33;65.02;100664.72;5007192;28;20026;-19
2023/05/12 07:36:52;;;;;;;7.18;3.75;;;;;;;14.51;63.90;100672.69;5007371;28;20037;-18
2023/05/12 07:39:22;;;;;;;5.45;3.63;;;;;;;14.59;65.09;100674.28;5007224;28;20070;-19
2023/05/12 07:41:51;;;;;;;5.00;3.25;;;;;;;14.58;63.20;100675.31;5007148;28;20029;-18
2023/05/12 07:44:17;;;;;;;5.65;3.42;;;;;;;14.52;64.79;100671.63;5007143;28;20026;-18
2023/05/12 07:46:42;;;;;;;6.63;3.25;;;;;;;14.67;65.89;100665.88;5006774;28;20433;-19
2023/05/12 07:49:07;;;;;;;6.07;3.45;;;;;;;14.53;64.10;100675.16;5006986;28;20730;-18
2023/05/12 07:51:33;;;;;;;6.15;3.63;;;;;;;14.57;64.00;100668.31;5005979;28;20030;-21
2023/05/12 07:53:59;;;;;;;8.38;3.30;;;;;;;14.77;59.78;100671.50;5006069;28;20060;-19
2023/05/12 07:56:25;;;;;;;11.23;3.58;;;;;;;15.23;59.88;100674.44;5006648;28;20037;-22
2023/05/12 07:58:50;;;;;;;8.38;4.20;;;;;;;15.82;58.69;100669.78;5006121;28;20030;-18
2023/05/12 08:01:16;;;;;;;6.10;3.30;;;;;;;16.13;57.62;100673.06;5006451;28;20133;-19
2023/05/12 08:03:41;;;;;;;8.40;3.38;;;;;;;16.07;56.23;100664.06;5006449;28;20073;-17
2023/05/12 08:06:06;;;;;;;7.63;2.95;;;;;;;15.64;55.42;100654.59;5006875;28;20105;-18
2023/05/12 08:08:32;;;;;;;5.82;3.47;;;;;;;15.61;56.32;100660.47;5006745;28;20061;-19
2023/05/12 08:10:58;;;;;;;5.63;3.30;;;;;;;15.50;57.36;100661.28;5006629;28;20042;-21
2023/05/12 08:13:25;;;;;;;11.25;3.90;;;;;;;15.65;58.33;100653.56;5006416;28;20176;-18
2023/05/12 08:15:50;;;;;;;5.95;2.85;;;;;;;15.87;55.54;100663.69;5006655;28;20486;-20
2023/05/12 08:18:16;;;;;;;6.70;3.58;;;;;;;15.85;56.02;100673.84;5006479;28;20025;-18
2023/05/12 08:20:41;;;;;;;5.72;2.90;;;;;;;15.74;56.93;100666.66;5006391;28;20029;-18
2023/05/12 08:23:07;;;;;;;5.88;3.10;;;;;;;15.32;58.87;100661.44;5006495;28;20030;-18
2023/05/12 08:25:34;;;;;;;9.00;3.00;;;;;;;15.48;55.88;100671.47;5006095;28;20026;-19
2023/05/12 08:28:00;;;;;;;5.97;3.13;;;;;;;15.53;56.82;100671.59;5006304;28;20052;-19
2023/05/12 08:30:26;;;;;;;7.40;3.05;;;;;;;16.13;56.37;100666.88;5006127;28;20402;-18
2023/05/12 08:32:52;;;;;;;6.63;3.05;;;;;;;16.55;53.42;100653.88;5005821;28;20032;-18
2023/05/12 08:35:18;;;;;;;6.63;3.10;;;;;;;16.82;53.50;100670.22;5006017;28;20034;-19
2023/05/12 08:37:44;;;;;;;6.15;2.90;;;;;;;17.08;52.04;100676.03;5006330;28;20047;-19
2023/05/12 08:40:16;;;;;;;7.93;3.08;;;;;;;16.54;51.17;100662.19;5006156;28;20026;-18
2023/05/12 08:42:48;;;;;;;3.45;2.15;;;;;;;15.98;47.72;100664.72;5005873;28;20064;-21
2023/05/12 08:45:14;;;;;;;5.50;2.45;;;;;;;15.89;50.43;100669.63;5003150;28;20034;-18
2023/05/12 08:47:41;;;;;;;4.32;2.50;;;;;;;15.99;50.91;100669.84;5005392;28;20053;-18
2023/05/12 08:50:08;;;;;;;6.07;2.50;;;;;;;15.92;52.43;100674.56;5004797;28;20075;-19
2023/05/12 08:52:34;;;;;;;5.68;2.88;;;;;;;15.93;52.38;100668.09;5005497;28;20026;-18
2023/05/12 08:55:00;;;;;;;4.97;2.63;;;;;;;16.21;49.53;100675.34;5005154;28;20101;-19
2023/05/12 08:57:26;;;;;;;4.10;2.50;;;;;;;16.17;48.92;100674.22;5005503;28;20406;-19
2023/05/12 08:59:56;;;;;;;5.53;2.70;;;;;;;16.39;52.11;100654.69;5005672;28;20026;-18
2023/05/12 09:02:23;;;;;;;4.13;2.55;;;;;;;16.70;49.15;100672.16;5005503;28;20034;-17
2023/05/12 09:04:53;;;;;;;4.13;2.65;;;;;;;17.05;48.03;100663.84;5003827;28;20022;-19
2023/05/12 09:07:21;;;;;;;5.13;2.60;;;;;;;17.68;48.39;100666.28;4995544;28;20026;-18
2023/05/12 09:09:51;;;;;;;4.47;2.22;;;;;;;17.43;46.56;100658.72;4996540;28;20490;-18
2023/05/12 09:12:18;;;;;;;4.45;2.40;;;;;;;17.73;45.40;100669.03;4995362;28;20544;-19
2023/05/12 09:14:45;;;;;;;4.35;2.30;;;;;;;17.77;44.85;100659.38;4997593;28;20077;-18
2023/05/12 09:17:11;;;;;;;4.57;2.28;;;;;;;17.77;43.44;100663.97;4997773;28;20018;-18
2023/05/12 09:19:37;;;;;;;5.68;2.25;;;;;;;18.56;40.73;100659.94;4995637;28;20045;-16
2023/05/12 09:22:03;;;;;;;5.03;2.00;;;;;;;19.01;39.64;100658.69;4999250;28;20728;-19
2023/05/12 09:24:39;;;;;;;3.00;2.00;;;;;;;18.93;37.79;100637.53;4998687;28;20025;-18
2023/05/12 09:27:05;;;;;;;5.32;2.30;;;;;;;19.19;39.14;100662.84;4998441;28;20033;-18
2023/05/12 09:29:32;;;;;;;5.72;2.22;;;;;;;19.09;38.28;100662.78;4994205;28;20045;-18
2023/05/12 09:32:00;;;;;;;3.88;1.95;;;;;;;19.36;39.01;100655.34;4987253;28;20026;-17
2023/05/12 09:34:30;;;;;;;6.13;2.53;;;;;;;19.18;38.66;100651.19;4995839;28;22027;-18
2023/05/12 09:37:00;;;;;;;6.75;2.40;;;;;;;19.06;38.36;100661.41;4992778;28;20499;-18
2023/05/12 09:39:27;;;;;;;4.75;2.25;;;;;;;18.43;40.15;100659.28;5005343;28;20026;-18
2023/05/12 09:41:53;;;;;;;6.72;2.40;;;;;;;18.95;39.59;100644.31;4993892;28;20124;-18
2023/05/12 09:44:19;;;;;;;5.22;2.03;;;;;;;19.36;39.20;100662.66;5000896;28;20100;-18
2023/05/12 09:46:45;;;;;;;7.00;2.63;;;;;;;19.76;37.03;100661.25;5003262;28;20026;-19
2023/05/12 09:49:11;;;;;;;3.30;2.10;;;;;;;19.36;36.82;100668.88;5000674;28;20081;-19
2023/05/12 09:51:37;;;;;;;4.82;2.35;;;;;;;18.73;40.52;100644.38;5003255;28;20041;-20
2023/05/12 09:54:03;;;;;;;5.30;2.08;;;;;;;18.70;39.40;100653.03;5001263;28;20018;-18
2023/05/12 09:56:31;;;;;;;4.97;2.65;;;;;;;17.98;40.36;100660.47;5003962;28;20113;-19
2023/05/12 09:58:57;;;;;;;4.43;2.70;;;;;;;17.87;41.90;100664.91;4997814;28;20028;-18
2023/05/12 10:01:24;;;;;;;5.05;2.70;;;;;;;18.56;41.85;100659.94;4995479;28;20448;-20
2023/05/12 10:03:55;;;;;;;6.63;2.53;;;;;;;18.59;41.99;100638.63;4997352;28;20022;-18
2023/05/12 10:06:36;;;;;;;8.13;2.55;;;;;;;19.79;39.39;100655.28;4998521;28;20116;-21
2023/05/12 10:09:04;;;;;;;4.03;2.50;;;;;;;20.06;38.49;100647.81;5000181;28;20022;-19
2023/05/12 10:11:30;;;;;;;6.68;2.10;;;;;;;20.06;36.27;100646.97;4996267;28;20058;-19
2023/05/12 10:13:57;;;;;;;3.78;2.17;;;;;;;20.40;35.41;100649.19;4997571;28;20085;-19
2023/05/12 10:16:25;;;;;;;4.13;2.17;;;;;;;20.18;38.30;100644.00;4995647;28;20026;-20
2023/05/12 10:18:51;;;;;;;4.75;2.10;;;;;;;20.17;37.54;100645.09;4997266;28;20029;-21
2023/05/12 10:21:17;;;;;;;4.70;2.40;;;;;;;20.11;36.68;100632.63;4991894;28;20076;-19
2023/05/12 10:23:43;;;;;;;4.72;2.58;;;;;;;20.06;36.98;100623.44;4999972;28;20082;-17
2023/05/12 10:26:10;;;;;;;5.03;2.40;;;;;;;19.96;38.52;100634.25;5002365;28;20034;-19
2023/05/12 10:28:36;;;;;;;3.85;2.03;;;;;;;20.01;37.38;100636.94;4992064;28;20022;-18
2023/05/12 10:31:04;;;;;;;4.47;2.25;;;;;;;19.68;38.10;100636.28;4994176;28;20468;-18
2023/05/12 10:33:29;;;;;;;4.43;2.08;;;;;;;19.60;38.35;100631.38;5004677;28;20036;-20
2023/05/12 10:35:55;;;;;;;6.22;2.30;;;;;;;19.01;39.71;100634.34;5002105;28;20022;-18
2023/05/12 10:38:20;;;;;;;3.72;2.33;;;;;;;19.17;40.39;100627.16;5001301;28;20023;-18
2023/05/12 10:40:53;;;;;;;4.25;2.22;;;;;;;19.83;38.82;100634.75;5002579;28;20041;-19
2023/05/12 10:43:26;;;;;;;5.18;2.30;;;;;;;19.86;38.49;100631.50;5000363;28;20048;-18
2023/05/12 10:46:18;;;;;;;5.25;2.45;;;;;;;19.76;39.69;100628.78;5003076;28;20022;-18
2023/05/12 10:48:53;;;;;;;4.47;2.50;;;;;;;20.37;40.02;100607.22;5001837;28;20113;-19
2023/05/12 10:51:30;;;;;;;4.30;2.45;;;;;;;20.91;37.98;100613.13;5002051;28;20029;-19
2023/05/12 10:53:59;;;;;;;5.03;2.22;;;;;;;21.04;35.64;100620.69;4993155;28;20038;-19
2023/05/12 10:56:37;;;;;;;4.50;2.38;;;;;;;21.40;34.61;100629.53;4994568;28;20045;-18
2023/05/12 10:59:18;;;;;;;4.88;2.65;;;;;;;21.31;34.37;100623.06;4994622;28;20026;-18
2023/05/12 11:02:13;;;;;;;4.63;2.33;;;;;;;21.37;31.69;100621.94;4997829;28;20519;-18
2023/05/12 11:04:41;;;;;;;4.05;2.10;;;;;;;21.45;35.12;100613.28;4988463;28;20038;-18
2023/05/12 11:07:08;;;;;;;4.93;2.40;;;;;;;21.49;35.46;100616.22;4999552;28;20073;-19
2023/05/12 11:09:35;;;;;;;4.53;2.33;;;;;;;21.19;35.51;100611.72;4988503;28;20045;-19
2023/05/12 11:12:01;;;;;;;3.42;2.40;;;;;;;20.46;35.46;100608.28;4996271;28;20332;-19
2023/05/12 11:14:27;;;;;;;4.72;2.20;;;;;;;20.22;36.21;100594.44;4990755;28;20060;-18
2023/05/12 11:16:52;;;;;;;6.00;2.50;;;;;;;20.70;35.67;100607.75;4998459;28;20025;-18
2023/05/12 11:19:17;;;;;;;5.50;2.13;;;;;;;21.57;33.54;100601.25;5005043;28;20061;-20
2023/05/12 11:21:43;;;;;;;7.80;2.70;;;;;;;21.17;34.56;100597.63;5005542;28;20101;-19